Flora, IL

12:30 PM CDT on September 19, 2017 (GMT -0500)
Flora Municipal

Weather History for KFOA - November, 2012

Change the Weather History Date:

Friday, November 23, 2012

  Actual Average (KSLO) Record (KSLO)
Temperature  
Mean Temperature 43 °F -  
Max Temperature 56 °F 51 °F 68 °F (1958)
Min Temperature 29 °F 32 °F 15 °F (1970)
Degree Days  
Heating Degree Days 22    
Moisture  
Dew Point 32 °F    
Average Humidity 69    
Maximum Humidity 94    
Minimum Humidity 48    
Precipitation  
Precipitation 0.01 in - - ()
Sea Level Pressure  
Sea Level Pressure 30.20 in    
Wind  
Wind Speed 13 mph (WNW)    
Max Wind Speed 23 mph    
Max Gust Speed 31 mph    
Visibility 10 miles    
Events Rain    
Averages and records for this station are not official NWS values.
T = Trace of Precipitation, MM = Missing Value Source: NWS Daily Summary

Daily Weather History Graph

Daily Weather History Graph

Search for Another Location

Airport or City:

Trip Planner

Search our weather history database for the weather conditions in past years. The results will help you decide how hot, cold, wet, or windy it might be!

Date:

Astronomy

Nov. 23, 2012 Rise Set
Actual Time 6:45 AM CST 4:35 PM CST
Civil Twilight 6:16 AM CST 5:04 PM CST
Nautical Twilight 5:43 AM CST 5:36 PM CST
Astronomical Twilight 5:11 AM CST 6:08 PM CST
Moon 1:47 PM CST (11/23) 2:06 AM CST (11/23)
Length of Visible Light 10h 48m
Length of Day
9h 50m
Waxing Gibbous, 80% of the Moon is Illuminated
Nov 23
Waxing Gibbous
Nov 28
Full
Dec 6
Last Quarter
Dec 13
New
Dec 19
First Quarter

Hourly Weather History & Observations

Time (CST) Temp. Windchill Dew Point Humidity Pressure Visibility Wind Dir Wind Speed Gust Speed Precip Events Conditions
12:15 AM 56.3 °F - 54.5 °F 94% 30.02 in 7.0 mi WSW 11.5 mph - N/A Rain Rain
12:35 AM 56.5 °F - 54.5 °F 93% 30.02 in 10.0 mi West 11.5 mph 17.3 mph 0.01 in   Overcast
12:55 AM 56.5 °F - 54.3 °F 92% 30.03 in 10.0 mi West 13.8 mph - 0.01 in   Mostly Cloudy
1:15 AM 56.7 °F - 54.5 °F 92% 30.03 in 10.0 mi West 12.7 mph 19.6 mph N/A   Mostly Cloudy
1:35 AM 56.5 °F - 53.2 °F 89% 30.05 in 10.0 mi WNW 17.3 mph 23.0 mph N/A   Overcast
1:55 AM 54.7 °F - 49.6 °F 83% 30.06 in 10.0 mi NW 18.4 mph 24.2 mph N/A   Overcast
2:15 AM 52.3 °F - 44.6 °F 75% 30.08 in 10.0 mi NW 19.6 mph 27.6 mph N/A   Overcast
2:35 AM 50.0 °F - 41.7 °F 73% 30.09 in 10.0 mi NW 17.3 mph 24.2 mph N/A   Mostly Cloudy
2:55 AM 49.3 °F - 41.9 °F 76% 30.10 in 10.0 mi NW 11.5 mph 19.6 mph N/A   Clear
3:15 AM 48.2 °F - 41.9 °F 79% 30.11 in 10.0 mi NW 10.4 mph - N/A   Clear
3:35 AM 46.9 °F - 40.5 °F 78% 30.12 in 10.0 mi NW 16.1 mph 25.3 mph N/A   Clear
3:55 AM 45.7 °F 39.8 °F 39.0 °F 78% 30.12 in 10.0 mi NW 12.7 mph 18.4 mph N/A   Clear
4:15 AM 44.8 °F 39.0 °F 37.9 °F 77% 30.12 in 10.0 mi NW 11.5 mph - N/A   Scattered Clouds
4:35 AM 44.1 °F 39.0 °F 37.4 °F 77% 30.12 in 10.0 mi NW 9.2 mph - N/A   Clear
4:55 AM 43.0 °F 38.2 °F 37.6 °F 81% 30.13 in 10.0 mi WNW 8.1 mph - N/A   Clear
5:15 AM 42.4 °F 37.0 °F 37.0 °F 81% 30.13 in 10.0 mi WNW 9.2 mph - N/A   Clear
5:35 AM 41.5 °F 37.1 °F 36.7 °F 83% 30.13 in 10.0 mi West 6.9 mph - N/A   Clear
5:55 AM 41.4 °F 36.2 °F 36.7 °F 83% 30.14 in 10.0 mi West 8.1 mph - N/A   Clear
6:15 AM 41.5 °F 36.4 °F 36.1 °F 81% 30.14 in 10.0 mi West 8.1 mph - N/A   Clear
6:35 AM 42.1 °F 36.6 °F 35.1 °F 76% 30.14 in 10.0 mi WNW 9.2 mph - N/A   Clear
6:55 AM 41.7 °F 36.1 °F 34.7 °F 76% 30.16 in 10.0 mi West 9.2 mph - N/A   Clear
7:15 AM 42.1 °F 36.1 °F 34.9 °F 76% 30.16 in 10.0 mi West 10.4 mph - N/A   Clear
7:35 AM 42.6 °F 36.8 °F 35.2 °F 75% 30.16 in 10.0 mi West 10.4 mph - N/A   Clear
7:55 AM 43.5 °F 37.1 °F 35.4 °F 73% 30.17 in 10.0 mi WNW 12.7 mph 21.9 mph N/A   Clear
8:15 AM 44.1 °F 37.1 °F 35.6 °F 72% 30.18 in 10.0 mi WNW 15.0 mph 20.7 mph N/A   Clear
8:35 AM 44.6 °F 37.4 °F 35.6 °F 71% 30.18 in 10.0 mi NW 16.1 mph 23.0 mph N/A   Clear
8:55 AM 45.1 °F 37.9 °F 36.1 °F 71% 30.19 in 10.0 mi WNW 17.3 mph 25.3 mph N/A   Scattered Clouds
9:15 AM 44.6 °F 37.4 °F 35.4 °F 70% 30.20 in 10.0 mi WNW 16.1 mph 21.9 mph N/A   Overcast
9:35 AM 45.5 °F 38.6 °F 34.9 °F 66% 30.20 in 10.0 mi NW 16.1 mph 21.9 mph N/A   Mostly Cloudy
9:55 AM 45.7 °F 38.6 °F 34.5 °F 65% 30.21 in 10.0 mi NW 17.3 mph 26.5 mph N/A   Scattered Clouds
10:15 AM 43.9 °F 35.9 °F 33.1 °F 66% 30.21 in 10.0 mi WNW 18.4 mph 24.2 mph N/A   Mostly Cloudy
10:35 AM 43.7 °F 35.7 °F 32.2 °F 64% 30.22 in 10.0 mi WNW 18.4 mph 26.5 mph N/A   Overcast
10:55 AM 44.1 °F 35.2 °F 31.1 °F 60% 30.21 in 10.0 mi WNW 23.0 mph 29.9 mph N/A   Mostly Cloudy
11:15 AM 45.0 °F 36.4 °F 30.9 °F 58% 30.21 in 10.0 mi WNW 23.0 mph 31.1 mph N/A   Scattered Clouds
11:35 AM 45.5 °F 37.6 °F 31.5 °F 58% 30.20 in 10.0 mi WNW 20.7 mph 26.5 mph N/A   Scattered Clouds
11:55 AM 45.9 °F 38.5 °F 31.5 °F 57% 30.20 in 10.0 mi WNW 18.4 mph 26.5 mph N/A   Clear
12:15 PM 46.4 °F 38.5 °F 31.1 °F 55% 30.20 in 10.0 mi WNW 21.9 mph 28.8 mph N/A   Clear
12:35 PM 45.9 °F 38.5 °F 30.9 °F 56% 30.20 in 10.0 mi WNW 18.4 mph 27.6 mph N/A   Scattered Clouds
1:15 PM 45.7 °F 38.6 °F 28.6 °F 51% 30.20 in 10.0 mi NW 17.3 mph 25.3 mph N/A   Clear
1:35 PM 45.3 °F 37.3 °F 28.4 °F 52% 30.21 in 10.0 mi WNW 20.7 mph 28.8 mph N/A   Clear
1:55 PM 45.7 °F 37.6 °F 28.9 °F 52% 30.21 in 10.0 mi WNW 21.9 mph 31.1 mph N/A   Clear
2:15 PM 44.8 °F 37.4 °F 27.9 °F 52% 30.22 in 10.0 mi NW 17.3 mph 26.5 mph N/A   Clear
2:35 PM 43.7 °F 36.3 °F 25.0 °F 48% 30.22 in 10.0 mi NW 16.1 mph 25.3 mph N/A   Clear
2:55 PM 43.7 °F 35.4 °F 26.1 °F 50% 30.23 in 10.0 mi WNW 19.6 mph 26.5 mph N/A   Clear
3:15 PM 43.0 °F 34.8 °F 26.4 °F 52% 30.23 in 10.0 mi WNW 18.4 mph 21.9 mph N/A   Clear
3:35 PM 42.3 °F 35.9 °F 26.2 °F 53% 30.23 in 10.0 mi NW 11.5 mph - N/A   Clear
3:55 PM 41.5 °F 35.0 °F 26.1 °F 54% 30.24 in 10.0 mi NW 11.5 mph 19.6 mph N/A   Clear
4:15 PM 40.5 °F 32.8 °F 24.4 °F 53% 30.25 in 10.0 mi NW 13.8 mph 20.7 mph N/A   Clear
4:35 PM 39.0 °F 32.3 °F 24.4 °F 56% 30.25 in 10.0 mi NW 10.4 mph - N/A   Clear
4:55 PM 37.9 °F 32.1 °F 25.0 °F 60% 30.26 in 10.0 mi NW 8.1 mph - N/A   Clear
5:15 PM 37.0 °F 31.6 °F 25.3 °F 63% 30.27 in 10.0 mi NW 6.9 mph - N/A   Clear
5:35 PM 36.1 °F 30.6 °F 25.5 °F 65% 30.28 in 10.0 mi WNW 6.9 mph - N/A   Clear
5:55 PM 37.0 °F 28.9 °F 25.7 °F 64% 30.28 in 10.0 mi WNW 12.7 mph - N/A   Clear
6:15 PM 36.3 °F 28.0 °F 24.1 °F 61% 30.29 in 10.0 mi NW 12.7 mph 18.4 mph N/A   Clear
6:35 PM 35.6 °F 28.6 °F 23.9 °F 62% 30.30 in 10.0 mi NW 9.2 mph - N/A   Clear
6:55 PM 35.2 °F 28.1 °F 24.1 °F 64% 30.30 in 10.0 mi NW 9.2 mph - N/A   Clear
7:15 PM 34.5 °F 27.3 °F 23.9 °F 65% 30.31 in 10.0 mi NW 9.2 mph - N/A   Clear
7:35 PM 34.3 °F 26.5 °F 23.9 °F 66% 30.31 in 10.0 mi NW 10.4 mph - N/A   Clear
7:55 PM 33.6 °F 26.2 °F 23.9 °F 68% 30.31 in 10.0 mi NW 9.2 mph - N/A   Clear
8:15 PM 33.8 °F 25.3 °F 23.7 °F 67% 30.31 in 10.0 mi NW 11.5 mph 17.3 mph N/A   Clear
8:35 PM 33.4 °F 25.4 °F 22.8 °F 65% 30.32 in 10.0 mi NW 10.4 mph 19.6 mph N/A   Clear
8:55 PM 32.9 °F 25.3 °F 23.0 °F 67% 30.31 in 10.0 mi NW 9.2 mph - N/A   Clear
9:15 PM 32.4 °F 23.5 °F 22.6 °F 67% 30.31 in 10.0 mi NW 11.5 mph - N/A   Clear
9:35 PM 32.0 °F 23.6 °F 22.8 °F 69% 30.31 in 10.0 mi NW 10.4 mph - N/A   Clear
9:55 PM 31.8 °F 24.6 °F 22.8 °F 69% 30.31 in 10.0 mi NW 8.1 mph - N/A   Clear
10:15 PM 31.6 °F 23.7 °F 22.6 °F 69% 30.32 in 10.0 mi NW 9.2 mph - N/A   Clear
10:35 PM 32.0 °F 25.6 °F 23.0 °F 69% 30.32 in 10.0 mi NW 6.9 mph - N/A   Clear
10:55 PM 30.6 °F 23.1 °F 22.5 °F 72% 30.32 in 10.0 mi NW 8.1 mph - N/A   Clear
11:15 PM 30.2 °F 22.6 °F 22.1 °F 72% 30.32 in 10.0 mi NW 8.1 mph - N/A   Clear
11:35 PM 30.4 °F 22.9 °F 21.7 °F 70% 30.31 in 10.0 mi NW 8.1 mph - N/A   Clear
11:55 PM 29.3 °F 22.3 °F 22.1 °F 75% 30.31 in 10.0 mi WNW 6.9 mph - N/A   Clear